sensor_id;sensor_type;location;lat;lon;timestamp;temperature;humidity
49549;DHT22;35450;44.518;7.466;2023-09-19T00:01:40;17.80;96.00
49549;DHT22;35450;44.518;7.466;2023-09-19T00:04:45;17.70;96.30
49549;DHT22;35450;44.518;7.466;2023-09-19T00:07:49;17.70;95.90
49549;DHT22;35450;44.518;7.466;2023-09-19T00:10:54;17.60;96.30
49549;DHT22;35450;44.518;7.466;2023-09-19T00:13:58;17.60;96.20
49549;DHT22;35450;44.518;7.466;2023-09-19T00:17:04;17.60;96.50
49549;DHT22;35450;44.518;7.466;2023-09-19T00:20:11;17.60;96.40
49549;DHT22;35450;44.518;7.466;2023-09-19T00:23:17;17.50;96.60
49549;DHT22;35450;44.518;7.466;2023-09-19T00:26:21;17.50;96.50
49549;DHT22;35450;44.518;7.466;2023-09-19T00:29:26;17.50;96.00
49549;DHT22;35450;44.518;7.466;2023-09-19T00:32:35;17.50;96.00
49549;DHT22;35450;44.518;7.466;2023-09-19T00:35:53;17.50;96.00
49549;DHT22;35450;44.518;7.466;2023-09-19T00:38:57;17.50;96.20
49549;DHT22;35450;44.518;7.466;2023-09-19T00:42:01;17.60;96.20
49549;DHT22;35450;44.518;7.466;2023-09-19T00:45:09;17.60;96.40
49549;DHT22;35450;44.518;7.466;2023-09-19T00:48:17;17.60;96.40
49549;DHT22;35450;44.518;7.466;2023-09-19T00:51:22;17.50;96.20
49549;DHT22;35450;44.518;7.466;2023-09-19T00:54:26;17.50;96.20
49549;DHT22;35450;44.518;7.466;2023-09-19T00:57:32;17.50;96.20
49549;DHT22;35450;44.518;7.466;2023-09-19T01:00:37;17.50;96.20
49549;DHT22;35450;44.518;7.466;2023-09-19T01:03:42;17.50;96.50
49549;DHT22;35450;44.518;7.466;2023-09-19T01:06:48;17.40;96.50
49549;DHT22;35450;44.518;7.466;2023-09-19T01:10:03;17.10;96.50
49549;DHT22;35450;44.518;7.466;2023-09-19T01:17:00;17.30;96.70
49549;DHT22;35450;44.518;7.466;2023-09-19T01:30:14;17.50;96.40
49549;DHT22;35450;44.518;7.466;2023-09-19T01:33:21;17.60;96.20
49549;DHT22;35450;44.518;7.466;2023-09-19T01:36:29;17.60;96.20
49549;DHT22;35450;44.518;7.466;2023-09-19T01:39:33;17.60;96.40
49549;DHT22;35450;44.518;7.466;2023-09-19T01:53:10;17.30;97.10
49549;DHT22;35450;44.518;7.466;2023-09-19T01:56:38;17.40;97.40
49549;DHT22;35450;44.518;7.466;2023-09-19T01:59:59;17.40;97.40
49549;DHT22;35450;44.518;7.466;2023-09-19T02:03:04;17.30;97.40
49549;DHT22;35450;44.518;7.466;2023-09-19T02:06:14;17.40;97.40
49549;DHT22;35450;44.518;7.466;2023-09-19T02:09:18;17.20;97.70
49549;DHT22;35450;44.518;7.466;2023-09-19T02:12:22;17.30;97.60
49549;DHT22;35450;44.518;7.466;2023-09-19T02:15:27;17.30;97.60
49549;DHT22;35450;44.518;7.466;2023-09-19T02:18:32;17.30;97.70
49549;DHT22;35450;44.518;7.466;2023-09-19T02:21:38;17.30;97.60
49549;DHT22;35450;44.518;7.466;2023-09-19T02:24:44;17.10;97.90
49549;DHT22;35450;44.518;7.466;2023-09-19T02:27:51;17.20;97.50
49549;DHT22;35450;44.518;7.466;2023-09-19T02:30:58;17.10;97.30
49549;DHT22;35450;44.518;7.466;2023-09-19T02:34:02;17.00;97.70
49549;DHT22;35450;44.518;7.466;2023-09-19T02:37:07;17.10;97.70
49549;DHT22;35450;44.518;7.466;2023-09-19T02:40:12;17.20;97.40
49549;DHT22;35450;44.518;7.466;2023-09-19T02:43:30;17.20;97.60
49549;DHT22;35450;44.518;7.466;2023-09-19T02:46:34;17.20;97.20
49549;DHT22;35450;44.518;7.466;2023-09-19T02:49:40;17.20;97.10
49549;DHT22;35450;44.518;7.466;2023-09-19T02:52:46;17.20;97.50
49549;DHT22;35450;44.518;7.466;2023-09-19T02:55:53;17.20;97.50
49549;DHT22;35450;44.518;7.466;2023-09-19T02:58:58;17.20;97.50
49549;DHT22;35450;44.518;7.466;2023-09-19T03:02:05;17.10;96.90
49549;DHT22;35450;44.518;7.466;2023-09-19T03:05:09;17.20;96.40
49549;DHT22;35450;44.518;7.466;2023-09-19T03:08:16;17.20;96.60
49549;DHT22;35450;44.518;7.466;2023-09-19T03:11:21;17.20;96.10
49549;DHT22;35450;44.518;7.466;2023-09-19T03:14:28;17.00;96.00
49549;DHT22;35450;44.518;7.466;2023-09-19T03:22:34;17.20;95.50
49549;DHT22;35450;44.518;7.466;2023-09-19T03:25:38;17.20;95.30
49549;DHT22;35450;44.518;7.466;2023-09-19T03:28:43;17.30;95.80
49549;DHT22;35450;44.518;7.466;2023-09-19T03:31:48;17.30;95.80
49549;DHT22;35450;44.518;7.466;2023-09-19T03:34:52;17.30;95.90
49549;DHT22;35450;44.518;7.466;2023-09-19T03:37:56;17.30;96.60
49549;DHT22;35450;44.518;7.466;2023-09-19T03:41:02;17.30;96.80
49549;DHT22;35450;44.518;7.466;2023-09-19T03:44:06;17.20;96.90
49549;DHT22;35450;44.518;7.466;2023-09-19T03:47:11;17.20;96.90
49549;DHT22;35450;44.518;7.466;2023-09-19T03:50:16;17.10;97.00
49549;DHT22;35450;44.518;7.466;2023-09-19T03:53:25;17.10;97.10
49549;DHT22;35450;44.518;7.466;2023-09-19T03:56:29;17.00;96.70
49549;DHT22;35450;44.518;7.466;2023-09-19T03:59:33;16.90;96.70
49549;DHT22;35450;44.518;7.466;2023-09-19T04:02:39;16.80;96.00
49549;DHT22;35450;44.518;7.466;2023-09-19T04:05:43;16.80;96.00
49549;DHT22;35450;44.518;7.466;2023-09-19T04:08:48;16.90;96.00
49549;DHT22;35450;44.518;7.466;2023-09-19T04:11:52;16.90;95.90
49549;DHT22;35450;44.518;7.466;2023-09-19T04:14:56;16.80;96.00
49549;DHT22;35450;44.518;7.466;2023-09-19T04:18:00;16.90;95.90
49549;DHT22;35450;44.518;7.466;2023-09-19T04:21:04;16.80;95.80
49549;DHT22;35450;44.518;7.466;2023-09-19T04:24:09;16.90;95.70
49549;DHT22;35450;44.518;7.466;2023-09-19T04:27:13;16.90;95.50
49549;DHT22;35450;44.518;7.466;2023-09-19T04:30:18;16.90;95.30
49549;DHT22;35450;44.518;7.466;2023-09-19T04:33:22;17.00;95.40
49549;DHT22;35450;44.518;7.466;2023-09-19T04:36:26;17.00;95.40
49549;DHT22;35450;44.518;7.466;2023-09-19T04:39:30;16.90;95.70
49549;DHT22;35450;44.518;7.466;2023-09-19T04:42:34;17.00;96.10
49549;DHT22;35450;44.518;7.466;2023-09-19T04:45:39;16.90;96.20
49549;DHT22;35450;44.518;7.466;2023-09-19T04:48:45;16.90;96.20
49549;DHT22;35450;44.518;7.466;2023-09-19T04:51:49;16.90;96.70
49549;DHT22;35450;44.518;7.466;2023-09-19T04:54:53;16.80;96.50
49549;DHT22;35450;44.518;7.466;2023-09-19T04:57:57;16.60;97.00
49549;DHT22;35450;44.518;7.466;2023-09-19T05:01:01;16.60;96.70
49549;DHT22;35450;44.518;7.466;2023-09-19T05:04:06;16.60;96.80
49549;DHT22;35450;44.518;7.466;2023-09-19T05:07:10;16.70;96.70
49549;DHT22;35450;44.518;7.466;2023-09-19T05:10:15;16.70;96.80
49549;DHT22;35450;44.518;7.466;2023-09-19T05:13:22;16.60;96.80
49549;DHT22;35450;44.518;7.466;2023-09-19T05:16:30;16.50;96.60
49549;DHT22;35450;44.518;7.466;2023-09-19T05:19:35;16.60;96.60
49549;DHT22;35450;44.518;7.466;2023-09-19T05:22:43;16.80;96.50
49549;DHT22;35450;44.518;7.466;2023-09-19T05:25:49;16.70;96.40
49549;DHT22;35450;44.518;7.466;2023-09-19T05:28:54;16.80;96.30
49549;DHT22;35450;44.518;7.466;2023-09-19T05:31:59;16.70;96.60
49549;DHT22;35450;44.518;7.466;2023-09-19T05:35:02;16.60;96.60
49549;DHT22;35450;44.518;7.466;2023-09-19T05:38:07;16.50;97.00
49549;DHT22;35450;44.518;7.466;2023-09-19T05:41:12;16.50;97.10
49549;DHT22;35450;44.518;7.466;2023-09-19T05:44:17;16.50;97.30
49549;DHT22;35450;44.518;7.466;2023-09-19T05:47:21;16.60;97.30
49549;DHT22;35450;44.518;7.466;2023-09-19T05:50:26;16.60;97.30
49549;DHT22;35450;44.518;7.466;2023-09-19T05:53:30;16.60;97.20
49549;DHT22;35450;44.518;7.466;2023-09-19T05:56:34;16.60;97.30
49549;DHT22;35450;44.518;7.466;2023-09-19T05:59:38;16.60;97.00
49549;DHT22;35450;44.518;7.466;2023-09-19T06:02:43;16.60;97.10
49549;DHT22;35450;44.518;7.466;2023-09-19T06:05:48;16.60;97.20
49549;DHT22;35450;44.518;7.466;2023-09-19T06:08:52;16.70;97.30
49549;DHT22;35450;44.518;7.466;2023-09-19T06:11:56;16.70;97.30
49549;DHT22;35450;44.518;7.466;2023-09-19T06:15:01;16.80;97.40
49549;DHT22;35450;44.518;7.466;2023-09-19T06:18:05;16.80;97.50
49549;DHT22;35450;44.518;7.466;2023-09-19T06:21:15;16.60;97.70
49549;DHT22;35450;44.518;7.466;2023-09-19T06:24:19;16.80;97.80
49549;DHT22;35450;44.518;7.466;2023-09-19T06:27:24;16.90;97.70
49549;DHT22;35450;44.518;7.466;2023-09-19T06:30:28;17.00;97.90
49549;DHT22;35450;44.518;7.466;2023-09-19T06:33:39;17.10;97.90
49549;DHT22;35450;44.518;7.466;2023-09-19T06:36:43;17.20;97.90
49549;DHT22;35450;44.518;7.466;2023-09-19T06:39:48;17.30;98.00
49549;DHT22;35450;44.518;7.466;2023-09-19T06:42:54;17.40;98.10
49549;DHT22;35450;44.518;7.466;2023-09-19T06:45:58;17.50;97.90
49549;DHT22;35450;44.518;7.466;2023-09-19T06:49:03;17.50;98.00
49549;DHT22;35450;44.518;7.466;2023-09-19T06:52:10;17.50;98.30
49549;DHT22;35450;44.518;7.466;2023-09-19T06:55:14;17.60;98.40
49549;DHT22;35450;44.518;7.466;2023-09-19T06:58:20;17.60;98.40
49549;DHT22;35450;44.518;7.466;2023-09-19T07:01:25;17.70;98.30
49549;DHT22;35450;44.518;7.466;2023-09-19T07:04:32;17.80;98.30
49549;DHT22;35450;44.518;7.466;2023-09-19T07:07:36;17.80;98.20
49549;DHT22;35450;44.518;7.466;2023-09-19T07:10:42;17.90;97.80
49549;DHT22;35450;44.518;7.466;2023-09-19T07:13:51;18.00;97.60
49549;DHT22;35450;44.518;7.466;2023-09-19T07:16:56;18.00;97.30
49549;DHT22;35450;44.518;7.466;2023-09-19T07:19:59;18.10;97.40
49549;DHT22;35450;44.518;7.466;2023-09-19T07:23:04;18.10;97.50
49549;DHT22;35450;44.518;7.466;2023-09-19T07:26:08;18.20;97.70
49549;DHT22;35450;44.518;7.466;2023-09-19T07:29:12;18.20;97.80
49549;DHT22;35450;44.518;7.466;2023-09-19T07:32:16;18.20;97.90
49549;DHT22;35450;44.518;7.466;2023-09-19T07:35:20;18.30;97.10
49549;DHT22;35450;44.518;7.466;2023-09-19T07:38:24;18.30;96.40
49549;DHT22;35450;44.518;7.466;2023-09-19T07:41:28;18.40;96.60
49549;DHT22;35450;44.518;7.466;2023-09-19T07:44:35;18.40;96.70
49549;DHT22;35450;44.518;7.466;2023-09-19T07:47:50;18.50;96.50
49549;DHT22;35450;44.518;7.466;2023-09-19T07:50:55;18.60;96.50
49549;DHT22;35450;44.518;7.466;2023-09-19T07:53:59;18.60;96.50
49549;DHT22;35450;44.518;7.466;2023-09-19T07:57:03;18.60;96.30
49549;DHT22;35450;44.518;7.466;2023-09-19T08:00:08;18.60;96.40
49549;DHT22;35450;44.518;7.466;2023-09-19T08:03:16;18.70;96.60
49549;DHT22;35450;44.518;7.466;2023-09-19T08:06:21;18.70;96.80
49549;DHT22;35450;44.518;7.466;2023-09-19T08:09:25;18.70;96.60
49549;DHT22;35450;44.518;7.466;2023-09-19T08:12:29;18.70;96.10
49549;DHT22;35450;44.518;7.466;2023-09-19T08:15:33;18.70;95.70
49549;DHT22;35450;44.518;7.466;2023-09-19T08:18:37;18.80;95.90
49549;DHT22;35450;44.518;7.466;2023-09-19T08:21:43;18.80;96.30
49549;DHT22;35450;44.518;7.466;2023-09-19T08:24:50;18.90;96.90
49549;DHT22;35450;44.518;7.466;2023-09-19T08:27:55;18.90;96.90
49549;DHT22;35450;44.518;7.466;2023-09-19T08:31:05;18.90;96.80
49549;DHT22;35450;44.518;7.466;2023-09-19T08:34:09;18.90;96.60
49549;DHT22;35450;44.518;7.466;2023-09-19T08:37:13;18.90;96.40
49549;DHT22;35450;44.518;7.466;2023-09-19T08:40:17;18.90;96.30
49549;DHT22;35450;44.518;7.466;2023-09-19T08:43:21;19.00;96.10
49549;DHT22;35450;44.518;7.466;2023-09-19T08:46:25;19.10;96.10
49549;DHT22;35450;44.518;7.466;2023-09-19T08:49:38;19.10;95.80
49549;DHT22;35450;44.518;7.466;2023-09-19T08:52:46;19.20;95.80
49549;DHT22;35450;44.518;7.466;2023-09-19T08:55:53;19.30;95.90
49549;DHT22;35450;44.518;7.466;2023-09-19T08:59:02;19.40;95.60
49549;DHT22;35450;44.518;7.466;2023-09-19T09:02:11;19.40;95.20
49549;DHT22;35450;44.518;7.466;2023-09-19T09:05:16;19.40;94.90
49549;DHT22;35450;44.518;7.466;2023-09-19T09:08:26;19.40;95.40
49549;DHT22;35450;44.518;7.466;2023-09-19T09:11:33;19.40;95.20
49549;DHT22;35450;44.518;7.466;2023-09-19T09:14:37;19.50;94.50
49549;DHT22;35450;44.518;7.466;2023-09-19T09:17:41;19.60;94.90
49549;DHT22;35450;44.518;7.466;2023-09-19T09:20:47;19.80;94.90
49549;DHT22;35450;44.518;7.466;2023-09-19T09:23:52;19.80;94.60
49549;DHT22;35450;44.518;7.466;2023-09-19T09:26:57;19.80;94.80
49549;DHT22;35450;44.518;7.466;2023-09-19T09:30:02;19.80;94.80
49549;DHT22;35450;44.518;7.466;2023-09-19T09:33:08;19.90;95.10
49549;DHT22;35450;44.518;7.466;2023-09-19T09:36:15;20.00;94.10
49549;DHT22;35450;44.518;7.466;2023-09-19T09:39:32;19.90;93.80
49549;DHT22;35450;44.518;7.466;2023-09-19T09:42:36;20.00;93.80
49549;DHT22;35450;44.518;7.466;2023-09-19T09:45:43;20.00;93.60
49549;DHT22;35450;44.518;7.466;2023-09-19T09:52:17;20.10;92.90
49549;DHT22;35450;44.518;7.466;2023-09-19T09:55:21;20.10;92.60
49549;DHT22;35450;44.518;7.466;2023-09-19T09:58:26;20.20;92.20
49549;DHT22;35450;44.518;7.466;2023-09-19T10:02:01;20.20;92.80
49549;DHT22;35450;44.518;7.466;2023-09-19T10:05:16;20.30;92.40
49549;DHT22;35450;44.518;7.466;2023-09-19T10:08:23;20.40;91.50
49549;DHT22;35450;44.518;7.466;2023-09-19T10:11:28;20.50;91.90
49549;DHT22;35450;44.518;7.466;2023-09-19T10:14:38;20.50;92.80
49549;DHT22;35450;44.518;7.466;2023-09-19T10:17:44;20.60;94.40
49549;DHT22;35450;44.518;7.466;2023-09-19T10:20:49;20.70;94.60
49549;DHT22;35450;44.518;7.466;2023-09-19T10:23:55;20.70;94.80
49549;DHT22;35450;44.518;7.466;2023-09-19T10:27:00;20.70;95.80
49549;DHT22;35450;44.518;7.466;2023-09-19T10:30:08;20.80;96.00
49549;DHT22;35450;44.518;7.466;2023-09-19T10:33:14;20.80;95.80
49549;DHT22;35450;44.518;7.466;2023-09-19T10:36:18;20.70;96.20
49549;DHT22;35450;44.518;7.466;2023-09-19T10:39:24;20.80;95.60
49549;DHT22;35450;44.518;7.466;2023-09-19T10:42:28;20.80;95.30
49549;DHT22;35450;44.518;7.466;2023-09-19T10:45:36;20.70;95.20
49549;DHT22;35450;44.518;7.466;2023-09-19T10:48:42;20.70;94.80
49549;DHT22;35450;44.518;7.466;2023-09-19T10:51:55;20.80;94.80
49549;DHT22;35450;44.518;7.466;2023-09-19T10:55:02;20.80;93.90
49549;DHT22;35450;44.518;7.466;2023-09-19T10:58:06;20.80;94.00
49549;DHT22;35450;44.518;7.466;2023-09-19T11:01:19;21.00;93.60
49549;DHT22;35450;44.518;7.466;2023-09-19T11:04:34;21.00;93.70
49549;DHT22;35450;44.518;7.466;2023-09-19T11:07:58;21.00;93.70
49549;DHT22;35450;44.518;7.466;2023-09-19T11:14:43;21.10;92.90
49549;DHT22;35450;44.518;7.466;2023-09-19T11:17:48;21.10;92.60
49549;DHT22;35450;44.518;7.466;2023-09-19T11:24:35;21.20;93.40
49549;DHT22;35450;44.518;7.466;2023-09-19T11:31:42;21.20;93.90
49549;DHT22;35450;44.518;7.466;2023-09-19T11:34:49;21.20;93.30
49549;DHT22;35450;44.518;7.466;2023-09-19T11:47:34;21.50;92.00
49549;DHT22;35450;44.518;7.466;2023-09-19T11:50:42;21.50;91.60
49549;DHT22;35450;44.518;7.466;2023-09-19T11:53:51;21.50;92.70
49549;DHT22;35450;44.518;7.466;2023-09-19T11:56:56;21.70;89.50
49549;DHT22;35450;44.518;7.466;2023-09-19T12:00:01;21.80;91.50
49549;DHT22;35450;44.518;7.466;2023-09-19T12:03:16;21.90;92.10
49549;DHT22;35450;44.518;7.466;2023-09-19T12:06:23;21.90;89.10
49549;DHT22;35450;44.518;7.466;2023-09-19T12:09:27;22.00;90.70
49549;DHT22;35450;44.518;7.466;2023-09-19T12:12:32;22.00;89.70
49549;DHT22;35450;44.518;7.466;2023-09-19T12:15:38;22.00;88.10
49549;DHT22;35450;44.518;7.466;2023-09-19T12:18:44;22.00;87.40
49549;DHT22;35450;44.518;7.466;2023-09-19T12:22:02;21.90;88.50
49549;DHT22;35450;44.518;7.466;2023-09-19T12:25:08;21.80;88.60
49549;DHT22;35450;44.518;7.466;2023-09-19T12:28:15;21.80;89.30
49549;DHT22;35450;44.518;7.466;2023-09-19T12:31:20;21.80;89.60
49549;DHT22;35450;44.518;7.466;2023-09-19T12:34:26;22.10;87.80
49549;DHT22;35450;44.518;7.466;2023-09-19T12:37:31;22.10;86.30
49549;DHT22;35450;44.518;7.466;2023-09-19T12:40:36;22.10;86.30
49549;DHT22;35450;44.518;7.466;2023-09-19T12:43:42;22.20;86.00
49549;DHT22;35450;44.518;7.466;2023-09-19T12:46:46;22.20;85.40
49549;DHT22;35450;44.518;7.466;2023-09-19T12:53:25;22.20;87.10
49549;DHT22;35450;44.518;7.466;2023-09-19T12:56:39;22.20;85.90
49549;DHT22;35450;44.518;7.466;2023-09-19T12:59:52;22.30;84.50
49549;DHT22;35450;44.518;7.466;2023-09-19T13:03:16;22.50;84.20
49549;DHT22;35450;44.518;7.466;2023-09-19T13:06:35;22.40;86.10
49549;DHT22;35450;44.518;7.466;2023-09-19T13:10:03;22.30;86.30
49549;DHT22;35450;44.518;7.466;2023-09-19T13:13:24;22.30;86.10
49549;DHT22;35450;44.518;7.466;2023-09-19T13:16:31;22.30;86.50
49549;DHT22;35450;44.518;7.466;2023-09-19T13:19:36;22.20;87.10
49549;DHT22;35450;44.518;7.466;2023-09-19T13:22:44;22.40;86.30
49549;DHT22;35450;44.518;7.466;2023-09-19T13:25:52;22.40;86.50
49549;DHT22;35450;44.518;7.466;2023-09-19T13:28:56;22.50;86.80
49549;DHT22;35450;44.518;7.466;2023-09-19T13:32:01;22.50;86.10
49549;DHT22;35450;44.518;7.466;2023-09-19T13:35:06;22.40;86.80
49549;DHT22;35450;44.518;7.466;2023-09-19T13:38:14;22.40;87.10
49549;DHT22;35450;44.518;7.466;2023-09-19T13:41:18;22.40;88.10
49549;DHT22;35450;44.518;7.466;2023-09-19T13:44:22;22.50;86.90
49549;DHT22;35450;44.518;7.466;2023-09-19T13:47:26;22.60;86.10
49549;DHT22;35450;44.518;7.466;2023-09-19T13:50:31;22.90;86.70
49549;DHT22;35450;44.518;7.466;2023-09-19T13:53:35;23.10;85.00
49549;DHT22;35450;44.518;7.466;2023-09-19T13:56:39;22.90;85.00
49549;DHT22;35450;44.518;7.466;2023-09-19T13:59:43;23.00;84.50
49549;DHT22;35450;44.518;7.466;2023-09-19T14:02:47;22.90;85.00
49549;DHT22;35450;44.518;7.466;2023-09-19T14:05:52;22.90;84.70
49549;DHT22;35450;44.518;7.466;2023-09-19T14:08:57;22.90;85.40
49549;DHT22;35450;44.518;7.466;2023-09-19T14:12:01;23.00;86.50
49549;DHT22;35450;44.518;7.466;2023-09-19T14:15:05;23.10;85.30
49549;DHT22;35450;44.518;7.466;2023-09-19T14:18:09;23.20;84.10
49549;DHT22;35450;44.518;7.466;2023-09-19T14:21:13;23.20;82.20
49549;DHT22;35450;44.518;7.466;2023-09-19T14:24:18;23.30;82.10
49549;DHT22;35450;44.518;7.466;2023-09-19T14:27:22;23.50;81.70
49549;DHT22;35450;44.518;7.466;2023-09-19T14:30:26;23.50;81.60
49549;DHT22;35450;44.518;7.466;2023-09-19T14:33:36;23.40;81.20
49549;DHT22;35450;44.518;7.466;2023-09-19T14:36:40;23.40;80.60
49549;DHT22;35450;44.518;7.466;2023-09-19T14:39:44;23.40;80.10
49549;DHT22;35450;44.518;7.466;2023-09-19T14:42:48;23.40;80.00
49549;DHT22;35450;44.518;7.466;2023-09-19T14:45:52;23.50;80.20
49549;DHT22;35450;44.518;7.466;2023-09-19T14:48:56;23.50;80.90
49549;DHT22;35450;44.518;7.466;2023-09-19T14:52:03;23.60;79.70
49549;DHT22;35450;44.518;7.466;2023-09-19T14:55:08;23.60;79.70
49549;DHT22;35450;44.518;7.466;2023-09-19T14:58:18;23.70;80.10
49549;DHT22;35450;44.518;7.466;2023-09-19T15:01:22;23.80;80.20
49549;DHT22;35450;44.518;7.466;2023-09-19T15:04:27;23.80;79.70
49549;DHT22;35450;44.518;7.466;2023-09-19T15:07:31;23.80;79.90
49549;DHT22;35450;44.518;7.466;2023-09-19T15:10:36;23.90;79.70
49549;DHT22;35450;44.518;7.466;2023-09-19T15:13:40;23.90;82.30
49549;DHT22;35450;44.518;7.466;2023-09-19T15:16:46;24.00;80.50
49549;DHT22;35450;44.518;7.466;2023-09-19T15:19:50;24.10;81.70
49549;DHT22;35450;44.518;7.466;2023-09-19T15:22:55;24.10;82.10
49549;DHT22;35450;44.518;7.466;2023-09-19T15:25:59;24.10;79.40
49549;DHT22;35450;44.518;7.466;2023-09-19T15:29:03;24.10;83.00
49549;DHT22;35450;44.518;7.466;2023-09-19T15:32:08;24.10;83.00
49549;DHT22;35450;44.518;7.466;2023-09-19T15:35:14;24.10;83.40
49549;DHT22;35450;44.518;7.466;2023-09-19T15:38:21;24.10;81.70
49549;DHT22;35450;44.518;7.466;2023-09-19T15:41:34;24.20;81.20
49549;DHT22;35450;44.518;7.466;2023-09-19T15:44:38;24.20;80.90
49549;DHT22;35450;44.518;7.466;2023-09-19T15:47:42;24.20;81.70
49549;DHT22;35450;44.518;7.466;2023-09-19T15:50:46;24.20;82.60
49549;DHT22;35450;44.518;7.466;2023-09-19T15:53:52;24.30;84.10
49549;DHT22;35450;44.518;7.466;2023-09-19T15:56:57;24.30;83.30
49549;DHT22;35450;44.518;7.466;2023-09-19T16:00:04;24.40;83.30
49549;DHT22;35450;44.518;7.466;2023-09-19T16:03:15;24.40;84.30
49549;DHT22;35450;44.518;7.466;2023-09-19T16:06:26;24.30;84.60
49549;DHT22;35450;44.518;7.466;2023-09-19T16:09:30;24.40;88.20
49549;DHT22;35450;44.518;7.466;2023-09-19T16:12:35;24.40;87.50
49549;DHT22;35450;44.518;7.466;2023-09-19T16:15:42;24.30;86.90
49549;DHT22;35450;44.518;7.466;2023-09-19T16:18:53;24.20;87.00
49549;DHT22;35450;44.518;7.466;2023-09-19T16:22:07;24.20;88.10
49549;DHT22;35450;44.518;7.466;2023-09-19T16:25:11;24.00;87.70
49549;DHT22;35450;44.518;7.466;2023-09-19T16:28:15;23.90;88.60
49549;DHT22;35450;44.518;7.466;2023-09-19T16:31:20;23.90;90.20
49549;DHT22;35450;44.518;7.466;2023-09-19T16:34:24;23.80;90.50
49549;DHT22;35450;44.518;7.466;2023-09-19T16:37:28;23.80;90.60
49549;DHT22;35450;44.518;7.466;2023-09-19T16:40:32;23.60;90.00
49549;DHT22;35450;44.518;7.466;2023-09-19T16:43:37;23.50;90.50
49549;DHT22;35450;44.518;7.466;2023-09-19T16:46:41;23.40;90.30
49549;DHT22;35450;44.518;7.466;2023-09-19T16:49:45;23.20;90.50
49549;DHT22;35450;44.518;7.466;2023-09-19T16:52:49;23.10;90.60
49549;DHT22;35450;44.518;7.466;2023-09-19T16:55:53;23.10;91.50
49549;DHT22;35450;44.518;7.466;2023-09-19T16:58:57;23.10;91.20
49549;DHT22;35450;44.518;7.466;2023-09-19T17:02:05;23.10;91.40
49549;DHT22;35450;44.518;7.466;2023-09-19T17:05:12;23.10;91.30
49549;DHT22;35450;44.518;7.466;2023-09-19T17:08:16;23.10;91.30
49549;DHT22;35450;44.518;7.466;2023-09-19T17:11:20;23.00;91.60
49549;DHT22;35450;44.518;7.466;2023-09-19T17:14:24;23.00;91.60
49549;DHT22;35450;44.518;7.466;2023-09-19T17:17:28;23.00;91.40
49549;DHT22;35450;44.518;7.466;2023-09-19T17:20:32;22.90;91.30
49549;DHT22;35450;44.518;7.466;2023-09-19T17:23:37;22.90;91.30
49549;DHT22;35450;44.518;7.466;2023-09-19T17:26:42;22.80;91.60
49549;DHT22;35450;44.518;7.466;2023-09-19T17:29:46;22.80;92.20
49549;DHT22;35450;44.518;7.466;2023-09-19T17:32:50;22.70;92.80
49549;DHT22;35450;44.518;7.466;2023-09-19T17:36:12;22.70;91.70
49549;DHT22;35450;44.518;7.466;2023-09-19T17:39:19;22.60;91.60
49549;DHT22;35450;44.518;7.466;2023-09-19T17:42:23;22.50;91.70
49549;DHT22;35450;44.518;7.466;2023-09-19T17:45:27;22.50;91.80
49549;DHT22;35450;44.518;7.466;2023-09-19T17:48:31;22.50;91.90
49549;DHT22;35450;44.518;7.466;2023-09-19T17:51:36;22.40;91.90
49549;DHT22;35450;44.518;7.466;2023-09-19T17:54:39;22.30;92.00
49549;DHT22;35450;44.518;7.466;2023-09-19T17:57:43;22.20;92.00
49549;DHT22;35450;44.518;7.466;2023-09-19T18:00:49;22.20;91.90
49549;DHT22;35450;44.518;7.466;2023-09-19T18:03:53;22.10;91.90
49549;DHT22;35450;44.518;7.466;2023-09-19T18:07:01;22.10;92.00
49549;DHT22;35450;44.518;7.466;2023-09-19T18:10:05;22.00;92.10
49549;DHT22;35450;44.518;7.466;2023-09-19T18:13:11;22.00;92.20
49549;DHT22;35450;44.518;7.466;2023-09-19T18:16:15;22.00;92.20
49549;DHT22;35450;44.518;7.466;2023-09-19T18:19:20;22.00;92.30
49549;DHT22;35450;44.518;7.466;2023-09-19T18:22:25;22.00;92.40
49549;DHT22;35450;44.518;7.466;2023-09-19T18:25:30;22.00;92.10
49549;DHT22;35450;44.518;7.466;2023-09-19T18:28:37;22.00;92.20
49549;DHT22;35450;44.518;7.466;2023-09-19T18:31:42;22.00;92.30
49549;DHT22;35450;44.518;7.466;2023-09-19T18:34:49;22.00;92.50
49549;DHT22;35450;44.518;7.466;2023-09-19T18:37:53;22.00;93.00
49549;DHT22;35450;44.518;7.466;2023-09-19T18:40:59;22.00;93.20
49549;DHT22;35450;44.518;7.466;2023-09-19T18:44:03;21.90;93.00
49549;DHT22;35450;44.518;7.466;2023-09-19T18:47:07;21.90;93.40
49549;DHT22;35450;44.518;7.466;2023-09-19T18:50:12;21.90;93.70
49549;DHT22;35450;44.518;7.466;2023-09-19T18:53:17;21.80;93.90
49549;DHT22;35450;44.518;7.466;2023-09-19T18:56:22;21.90;93.90
49549;DHT22;35450;44.518;7.466;2023-09-19T18:59:27;21.80;94.00
49549;DHT22;35450;44.518;7.466;2023-09-19T19:02:32;21.80;93.90
49549;DHT22;35450;44.518;7.466;2023-09-19T19:05:36;21.80;94.10
49549;DHT22;35450;44.518;7.466;2023-09-19T19:08:41;21.70;93.80
49549;DHT22;35450;44.518;7.466;2023-09-19T19:11:45;21.70;93.60
49549;DHT22;35450;44.518;7.466;2023-09-19T19:14:49;21.70;93.50
49549;DHT22;35450;44.518;7.466;2023-09-19T19:17:53;21.70;93.80
49549;DHT22;35450;44.518;7.466;2023-09-19T19:21:02;21.50;94.00
49549;DHT22;35450;44.518;7.466;2023-09-19T19:24:08;21.50;94.70
49549;DHT22;35450;44.518;7.466;2023-09-19T19:27:12;21.60;93.90
49549;DHT22;35450;44.518;7.466;2023-09-19T19:30:16;21.60;93.60
49549;DHT22;35450;44.518;7.466;2023-09-19T19:33:21;21.60;93.50
49549;DHT22;35450;44.518;7.466;2023-09-19T19:36:27;21.60;93.60
49549;DHT22;35450;44.518;7.466;2023-09-19T19:39:31;21.50;93.80
49549;DHT22;35450;44.518;7.466;2023-09-19T19:42:35;21.60;93.80
49549;DHT22;35450;44.518;7.466;2023-09-19T19:45:39;21.50;93.90
49549;DHT22;35450;44.518;7.466;2023-09-19T19:48:48;21.40;93.50
49549;DHT22;35450;44.518;7.466;2023-09-19T19:51:52;21.40;93.80
49549;DHT22;35450;44.518;7.466;2023-09-19T19:54:56;21.40;93.80
49549;DHT22;35450;44.518;7.466;2023-09-19T19:58:00;21.40;93.80
49549;DHT22;35450;44.518;7.466;2023-09-19T20:01:05;21.10;94.70
49549;DHT22;35450;44.518;7.466;2023-09-19T20:04:13;21.10;95.20
49549;DHT22;35450;44.518;7.466;2023-09-19T20:07:19;21.00;95.60
49549;DHT22;35450;44.518;7.466;2023-09-19T20:10:23;20.70;95.40
49549;DHT22;35450;44.518;7.466;2023-09-19T20:13:27;20.70;95.60
49549;DHT22;35450;44.518;7.466;2023-09-19T20:16:32;20.80;95.30
49549;DHT22;35450;44.518;7.466;2023-09-19T20:19:37;20.90;95.40
49549;DHT22;35450;44.518;7.466;2023-09-19T20:22:42;20.90;95.00
49549;DHT22;35450;44.518;7.466;2023-09-19T20:25:47;20.90;94.70
49549;DHT22;35450;44.518;7.466;2023-09-19T20:28:51;20.90;95.00
49549;DHT22;35450;44.518;7.466;2023-09-19T20:31:55;20.80;94.50